createdAt,value
2016-12-07T00:00:52.042Z,0
2016-12-07T00:01:52.037Z,0
2016-12-07T00:02:52.361Z,0
2016-12-07T00:03:52.355Z,0
2016-12-07T00:04:52.349Z,0
2016-12-07T00:05:52.021Z,0
2016-12-07T00:06:52.345Z,0
2016-12-07T00:07:52.017Z,0
2016-12-07T00:08:52.356Z,0
2016-12-07T00:09:52.332Z,0
2016-12-07T00:10:52.321Z,0
2016-12-07T00:11:52.320Z,0
2016-12-07T00:12:51.992Z,0
2016-12-07T00:13:52.308Z,0
2016-12-07T00:14:51.989Z,0
2016-12-07T00:15:52.304Z,0
2016-12-07T00:16:52.293Z,0
2016-12-07T00:17:52.293Z,0
2016-12-07T00:18:51.961Z,0
2016-12-07T00:19:51.957Z,0
2016-12-07T00:20:52.281Z,0
2016-12-07T00:21:52.278Z,0
2016-12-07T00:22:51.946Z,0
2016-12-07T00:23:52.266Z,0
2016-12-07T00:24:52.262Z,0
2016-12-07T00:25:52.255Z,0
2016-12-07T00:26:52.254Z,0
2016-12-07T00:27:51.923Z,0
2016-12-07T00:28:51.919Z,0
2016-12-07T00:29:52.239Z,0
2016-12-07T00:30:51.587Z,0
2016-12-07T00:31:52.235Z,0
2016-12-07T00:32:52.228Z,0
2016-12-07T00:33:51.900Z,0
2016-12-07T00:34:51.892Z,0
2016-12-07T00:35:52.212Z,0
2016-12-07T00:36:51.892Z,0
2016-12-07T00:37:52.208Z,0
2016-12-07T00:38:52.201Z,0
2016-12-07T00:39:52.196Z,0
2016-12-07T00:40:51.873Z,0
2016-12-07T00:41:52.189Z,0
2016-12-07T00:42:52.185Z,0
2016-12-07T00:43:52.177Z,0
2016-12-07T00:44:52.177Z,0
2016-12-07T00:45:52.177Z,0
2016-12-07T00:46:52.181Z,0
2016-12-07T00:47:52.169Z,0
2016-12-07T00:48:52.162Z,0
2016-12-07T00:49:52.158Z,0
2016-12-07T00:50:52.151Z,0
2016-12-07T00:51:52.143Z,0
2016-12-07T00:52:52.139Z,0
2016-12-07T00:53:51.811Z,0
2016-12-07T00:54:52.132Z,0
2016-12-07T00:55:52.127Z,0
2016-12-07T00:56:51.800Z,0
2016-12-07T00:57:51.796Z,0
2016-12-07T00:58:52.120Z,0
2016-12-07T00:59:52.120Z,0
2016-12-07T01:00:52.105Z,0
2016-12-07T01:01:52.105Z,0
2016-12-07T01:02:52.097Z,0
2016-12-07T01:03:51.770Z,0
2016-12-07T01:04:52.094Z,0
2016-12-07T01:05:51.766Z,0
2016-12-07T01:06:52.082Z,0
2016-12-07T01:07:51.435Z,0
2016-12-07T01:08:52.071Z,0
2016-12-07T01:09:52.071Z,0
2016-12-07T01:10:52.063Z,0
2016-12-07T01:11:52.063Z,0
2016-12-07T01:12:52.056Z,0
2016-12-07T01:13:52.052Z,0
2016-12-07T01:14:52.052Z,0
2016-12-07T01:15:52.044Z,0
2016-12-07T01:16:52.045Z,0
2016-12-07T01:17:52.185Z,0
2016-12-07T01:18:52.033Z,0
2016-12-07T01:19:51.701Z,0
2016-12-07T01:20:52.021Z,0
2016-12-07T01:21:52.046Z,0
2016-12-07T01:22:52.014Z,0
2016-12-07T01:23:52.006Z,0
2016-12-07T01:24:52.010Z,0
2016-12-07T01:25:51.999Z,0
2016-12-07T01:26:51.995Z,0
2016-12-07T01:27:51.343Z,0
2016-12-07T01:28:51.671Z,0
2016-12-07T01:29:51.983Z,0
2016-12-07T01:30:51.976Z,0
2016-12-07T01:31:51.972Z,0
2016-12-07T01:32:51.980Z,0
2016-12-07T01:33:51.964Z,0
2016-12-07T01:34:51.960Z,0
2016-12-07T01:35:51.961Z,0
2016-12-07T01:36:51.949Z,0
2016-12-07T01:37:51.973Z,0
2016-12-07T01:38:51.945Z,0
2016-12-07T01:39:51.942Z,0
2016-12-07T01:40:51.933Z,0
2016-12-07T01:41:51.933Z,0
2016-12-07T01:42:51.929Z,0
2016-12-07T01:43:51.282Z,0
2016-12-07T01:44:51.926Z,0
2016-12-07T01:45:51.913Z,0
2016-12-07T01:46:51.577Z,0
2016-12-07T01:47:51.581Z,0
2016-12-07T01:48:51.905Z,0
2016-12-07T01:49:51.893Z,0
2016-12-07T01:50:51.897Z,0
2016-12-07T01:51:51.553Z,0
2016-12-07T01:52:51.885Z,0
2016-12-07T01:53:51.876Z,0
2016-12-07T01:54:51.868Z,0
2016-12-07T01:55:51.860Z,0
2016-12-07T01:56:51.884Z,0
2016-12-07T01:57:51.208Z,0
2016-12-07T01:58:51.524Z,0
2016-12-07T01:59:51.520Z,0
2016-12-07T02:00:51.516Z,0
2016-12-07T02:01:51.836Z,0
2016-12-07T02:02:51.504Z,0
2016-12-07T02:03:51.500Z,0
2016-12-07T02:04:51.824Z,0
2016-12-07T02:05:51.817Z,0
2016-12-07T02:06:51.807Z,0
2016-12-07T02:07:51.803Z,0
2016-12-07T02:08:51.799Z,0
2016-12-07T02:09:51.795Z,0
2016-12-07T02:10:51.791Z,0
2016-12-07T02:11:51.795Z,0
2016-12-07T02:12:51.464Z,0
2016-12-07T02:13:51.775Z,0
2016-12-07T02:14:51.775Z,0
2016-12-07T02:15:51.443Z,0
2016-12-07T02:16:51.769Z,0
2016-12-07T02:17:51.754Z,0
2016-12-07T02:18:51.751Z,0
2016-12-07T02:19:51.750Z,0
2016-12-07T02:20:51.743Z,0
2016-12-07T02:21:51.739Z,0
2016-12-07T02:22:51.740Z,0
2016-12-07T02:23:51.732Z,0
2016-12-07T02:24:51.408Z,0
2016-12-07T02:25:51.752Z,0
2016-12-07T02:26:51.720Z,0
2016-12-07T02:27:51.388Z,0
2016-12-07T02:28:51.712Z,0
2016-12-07T02:29:51.372Z,0
2016-12-07T02:30:51.700Z,0
2016-12-07T02:31:51.692Z,0
2016-12-07T02:32:51.688Z,0
2016-12-07T02:33:51.684Z,0
2016-12-07T02:34:51.353Z,0
2016-12-07T02:35:51.673Z,0
2016-12-07T02:36:51.669Z,0
2016-12-07T02:37:51.337Z,0
2016-12-07T02:38:51.657Z,0
2016-12-07T02:39:51.653Z,0
2016-12-07T02:40:51.649Z,0
2016-12-07T02:41:51.649Z,0
2016-12-07T02:42:51.637Z,0
2016-12-07T02:43:51.637Z,0
2016-12-07T02:44:51.630Z,0
2016-12-07T02:45:51.626Z,0
2016-12-07T02:46:51.622Z,0
2016-12-07T02:47:50.970Z,0
2016-12-07T02:48:51.294Z,0
2016-12-07T02:49:51.282Z,0
2016-12-07T02:50:51.602Z,0
2016-12-07T02:51:51.274Z,0
2016-12-07T02:52:51.595Z,0
2016-12-07T02:53:51.594Z,0
2016-12-07T02:54:51.586Z,0
2016-12-07T02:55:51.579Z,0
2016-12-07T02:56:50.927Z,0
2016-12-07T02:57:51.239Z,0
2016-12-07T02:58:51.563Z,0
2016-12-07T02:59:51.560Z,0
2016-12-07T03:00:51.559Z,0
2016-12-07T03:01:50.899Z,0
2016-12-07T03:02:51.224Z,0
2016-12-07T03:03:51.540Z,0
2016-12-07T03:04:51.544Z,0
2016-12-07T03:05:51.528Z,0
2016-12-07T03:06:51.524Z,0
2016-12-07T03:07:51.520Z,0
2016-12-07T03:08:51.340Z,0
2016-12-07T03:09:51.516Z,0
2016-12-07T03:10:51.504Z,0
2016-12-07T03:11:51.524Z,0
2016-12-07T03:12:51.173Z,0
2016-12-07T03:13:51.169Z,0
2016-12-07T03:14:51.485Z,0
2016-12-07T03:15:51.161Z,0
2016-12-07T03:16:51.157Z,0
2016-12-07T03:17:51.153Z,0
2016-12-07T03:18:51.466Z,0
2016-12-07T03:19:51.470Z,0
2016-12-07T03:20:51.461Z,0
2016-12-07T03:21:51.469Z,0
2016-12-07T03:22:51.454Z,0
2016-12-07T03:23:51.118Z,0
2016-12-07T03:24:51.438Z,0
2016-12-07T03:25:51.434Z,0
2016-12-07T03:26:51.426Z,0
2016-12-07T03:27:51.422Z,0
2016-12-07T03:28:51.094Z,0
2016-12-07T03:29:51.422Z,0
2016-12-07T03:30:51.083Z,0
2016-12-07T03:31:50.751Z,0
2016-12-07T03:32:51.399Z,0
2016-12-07T03:33:51.077Z,0
2016-12-07T03:34:51.395Z,0
2016-12-07T03:35:51.391Z,0
2016-12-07T03:36:51.383Z,0
2016-12-07T03:37:51.052Z,0
2016-12-07T03:38:51.044Z,0
2016-12-07T03:39:51.363Z,0
2016-12-07T03:40:51.360Z,0
2016-12-07T03:41:51.359Z,0
2016-12-07T03:42:51.347Z,0
2016-12-07T03:43:51.016Z,0
2016-12-07T03:44:51.340Z,0
2016-12-07T03:45:51.336Z,0
2016-12-07T03:46:51.332Z,0
2016-12-07T03:47:51.329Z,0
2016-12-07T03:48:51.520Z,0
2016-12-07T03:49:51.312Z,0
2016-12-07T03:50:51.308Z,0
2016-12-07T03:51:50.980Z,0
2016-12-07T03:52:51.312Z,0
2016-12-07T03:53:50.973Z,0
2016-12-07T03:54:50.969Z,0
2016-12-07T03:55:51.321Z,0
2016-12-07T03:56:51.284Z,0
2016-12-07T03:57:50.949Z,0
2016-12-07T03:58:51.273Z,0
2016-12-07T03:59:51.265Z,0
2016-12-07T04:00:50.941Z,0
2016-12-07T04:01:51.253Z,0
2016-12-07T04:02:50.601Z,0
2016-12-07T04:03:51.249Z,0
2016-12-07T04:04:51.237Z,0
2016-12-07T04:05:51.237Z,0
2016-12-07T04:06:50.909Z,0
2016-12-07T04:07:51.225Z,0
2016-12-07T04:08:51.222Z,0
2016-12-07T04:09:50.890Z,0
2016-12-07T04:10:50.886Z,0
2016-12-07T04:11:51.206Z,0
2016-12-07T04:12:51.202Z,0
2016-12-07T04:13:50.872Z,12
2016-12-07T04:14:51.194Z,12
2016-12-07T04:15:51.190Z,0
2016-12-07T04:16:51.190Z,0
2016-12-07T04:17:51.174Z,0
2016-12-07T04:18:51.175Z,0
2016-12-07T04:19:51.167Z,0
2016-12-07T04:20:51.170Z,0
2016-12-07T04:21:51.159Z,0
2016-12-07T04:22:50.826Z,0
2016-12-07T04:23:51.147Z,0
2016-12-07T04:24:51.139Z,0
2016-12-07T04:25:50.851Z,0
2016-12-07T04:26:50.807Z,0
2016-12-07T04:27:51.159Z,0
2016-12-07T04:28:51.123Z,0
2016-12-07T04:29:51.115Z,0
2016-12-07T04:30:51.116Z,0
2016-12-07T04:31:51.111Z,0
2016-12-07T04:32:50.451Z,0
2016-12-07T04:33:50.779Z,0
2016-12-07T04:34:51.091Z,0
2016-12-07T04:35:51.083Z,0
2016-12-07T04:36:51.084Z,0
2016-12-07T04:37:50.756Z,0
2016-12-07T04:38:51.072Z,0
2016-12-07T04:39:50.739Z,0
2016-12-07T04:40:50.736Z,0
2016-12-07T04:41:50.736Z,0
2016-12-07T04:42:51.056Z,0
2016-12-07T04:43:50.724Z,0
2016-12-07T04:44:50.712Z,0
2016-12-07T04:45:50.712Z,0
2016-12-07T04:46:51.036Z,0
2016-12-07T04:47:51.024Z,0
2016-12-07T04:48:51.024Z,0
2016-12-07T04:49:51.032Z,0
2016-12-07T04:50:51.012Z,0
2016-12-07T04:51:51.036Z,0
2016-12-07T04:52:50.680Z,0
2016-12-07T04:53:51.024Z,0
2016-12-07T04:54:50.348Z,0
2016-12-07T04:55:50.664Z,0
2016-12-07T04:56:50.980Z,0
2016-12-07T04:57:50.980Z,12
2016-12-07T04:58:50.476Z,12
2016-12-07T04:59:50.648Z,0
2016-12-07T05:00:50.640Z,12
2016-12-07T05:01:50.960Z,12
2016-12-07T05:02:50.956Z,0
2016-12-07T05:03:50.948Z,0
2016-12-07T05:04:50.941Z,0
2016-12-07T05:05:50.616Z,0
2016-12-07T05:06:50.934Z,0
2016-12-07T05:07:50.924Z,0
2016-12-07T05:08:50.920Z,0
2016-12-07T05:09:50.917Z,0
2016-12-07T05:10:50.913Z,0
2016-12-07T05:11:50.905Z,0
2016-12-07T05:12:50.577Z,0
2016-12-07T05:13:50.573Z,0
2016-12-07T05:14:50.892Z,0
2016-12-07T05:15:50.901Z,0
2016-12-07T05:16:50.881Z,0
2016-12-07T05:17:50.881Z,0
2016-12-07T05:18:50.876Z,0
2016-12-07T05:19:50.864Z,0
2016-12-07T05:20:50.864Z,0
2016-12-07T05:21:50.860Z,0
2016-12-07T05:22:50.856Z,0
2016-12-07T05:23:50.845Z,0
2016-12-07T05:24:50.518Z,0
2016-12-07T05:25:50.516Z,0
2016-12-07T05:26:50.832Z,0
2016-12-07T05:27:50.829Z,0
2016-12-07T05:28:50.819Z,0
2016-12-07T05:29:50.824Z,0
2016-12-07T05:30:50.488Z,0
2016-12-07T05:31:50.483Z,0
2016-12-07T05:32:50.476Z,0
2016-12-07T05:33:50.480Z,0
2016-12-07T05:34:50.464Z,0
2016-12-07T05:35:50.787Z,0
2016-12-07T05:36:50.784Z,0
2016-12-07T05:37:50.780Z,0
2016-12-07T05:38:50.448Z,0
2016-12-07T05:39:50.768Z,0
2016-12-07T05:40:50.764Z,0
2016-12-07T05:41:50.436Z,0
2016-12-07T05:42:50.768Z,0
2016-12-07T05:43:50.424Z,0
2016-12-07T05:44:50.748Z,0
2016-12-07T05:45:50.736Z,0
2016-12-07T05:46:50.744Z,0
2016-12-07T05:47:50.728Z,0
2016-12-07T05:48:50.403Z,0
2016-12-07T05:49:50.720Z,0
2016-12-07T05:50:50.724Z,0
2016-12-07T05:51:50.712Z,0
2016-12-07T05:52:50.380Z,0
2016-12-07T05:53:50.706Z,0
2016-12-07T05:54:50.704Z,12
2016-12-07T05:55:50.692Z,12
2016-12-07T05:56:50.360Z,12
2016-12-07T05:57:50.355Z,12
2016-12-07T05:58:50.347Z,12
2016-12-07T05:59:50.352Z,0
2016-12-07T06:00:50.668Z,0
2016-12-07T06:01:50.372Z,0
2016-12-07T06:02:50.336Z,0
2016-12-07T06:03:50.652Z,0
2016-12-07T06:04:50.648Z,0
2016-12-07T06:05:50.328Z,0
2016-12-07T06:06:50.643Z,0
2016-12-07T06:07:50.308Z,0
2016-12-07T06:08:50.336Z,0
2016-12-07T06:09:50.623Z,0
2016-12-07T06:10:50.621Z,12
2016-12-07T06:11:50.611Z,12
2016-12-07T06:12:50.612Z,0
2016-12-07T06:13:50.284Z,0
2016-12-07T06:14:50.275Z,0
2016-12-07T06:15:50.596Z,0
2016-12-07T06:16:50.264Z,0
2016-12-07T06:17:50.592Z,0
2016-12-07T06:18:50.579Z,0
2016-12-07T06:19:50.251Z,0
2016-12-07T06:20:50.571Z,0
2016-12-07T06:21:50.591Z,0
2016-12-07T06:22:50.559Z,0
2016-12-07T06:23:50.591Z,0
2016-12-07T06:24:50.551Z,0
2016-12-07T06:25:50.547Z,0
2016-12-07T06:26:50.539Z,0
2016-12-07T06:27:50.539Z,0
2016-12-07T06:28:50.535Z,16
2016-12-07T06:29:50.527Z,16
2016-12-07T06:30:50.526Z,0
2016-12-07T06:31:50.203Z,0
2016-12-07T06:32:50.187Z,4
2016-12-07T06:33:50.515Z,4
2016-12-07T06:34:50.503Z,4
2016-12-07T06:35:50.531Z,4
2016-12-07T06:36:50.171Z,4
2016-12-07T06:37:50.487Z,8
2016-12-07T06:38:50.486Z,4
2016-12-07T06:39:50.478Z,8
2016-12-07T06:40:50.146Z,8
2016-12-07T06:41:50.142Z,8
2016-12-07T06:42:50.462Z,12
2016-12-07T06:43:50.139Z,16
2016-12-07T06:44:50.454Z,28
2016-12-07T06:45:50.447Z,32
2016-12-07T06:46:50.478Z,24
2016-12-07T06:47:50.438Z,28
2016-12-07T06:48:50.114Z,28
2016-12-07T06:49:50.430Z,32
2016-12-07T06:50:50.422Z,36
2016-12-07T06:51:50.427Z,40
2016-12-07T06:52:50.419Z,40
2016-12-07T06:53:50.418Z,48
2016-12-07T06:54:50.078Z,52
2016-12-07T06:55:50.409Z,56
2016-12-07T06:56:49.747Z,60
2016-12-07T06:57:50.390Z,72
2016-12-07T06:58:50.382Z,76
2016-12-07T06:59:50.055Z,92
2016-12-07T07:00:50.379Z,100
2016-12-07T07:01:50.371Z,108
2016-12-07T07:02:50.367Z,112
2016-12-07T07:03:50.042Z,104
2016-12-07T07:04:50.355Z,124
2016-12-07T07:05:50.022Z,128
2016-12-07T07:06:50.026Z,124
2016-12-07T07:07:50.019Z,136
2016-12-07T07:08:50.014Z,152
2016-12-07T07:09:50.335Z,164
2016-12-07T07:10:50.326Z,176
2016-12-07T07:11:50.330Z,192
2016-12-07T07:12:50.322Z,204
2016-12-07T07:13:49.990Z,216
2016-12-07T07:14:50.507Z,232
2016-12-07T07:15:50.302Z,248
2016-12-07T07:16:49.975Z,264
2016-12-07T07:17:50.291Z,272
2016-12-07T07:18:50.294Z,284
2016-12-07T07:19:50.282Z,296
2016-12-07T07:20:49.631Z,320
2016-12-07T07:21:49.950Z,340
2016-12-07T07:22:50.271Z,344
2016-12-07T07:23:50.263Z,352
2016-12-07T07:24:49.787Z,368
2016-12-07T07:25:50.259Z,380
2016-12-07T07:26:49.926Z,400
2016-12-07T07:27:50.279Z,400
2016-12-07T07:28:50.243Z,412
2016-12-07T07:29:49.915Z,420
2016-12-07T07:30:50.233Z,416
2016-12-07T07:31:49.907Z,416
2016-12-07T07:32:49.903Z,452
2016-12-07T07:33:50.255Z,444
2016-12-07T07:34:50.219Z,448
2016-12-07T07:35:50.207Z,428
2016-12-07T07:36:50.203Z,452
2016-12-07T07:37:50.199Z,476
2016-12-07T07:38:50.195Z,504
2016-12-07T07:39:50.187Z,532
2016-12-07T07:40:50.188Z,532
2016-12-07T07:41:50.183Z,548
2016-12-07T07:42:50.175Z,564
2016-12-07T07:43:50.176Z,596
2016-12-07T07:44:50.168Z,568
2016-12-07T07:45:50.160Z,572
2016-12-07T07:46:50.164Z,576
2016-12-07T07:47:49.828Z,572
2016-12-07T07:48:50.148Z,616
2016-12-07T07:49:49.820Z,656
2016-12-07T07:50:49.816Z,660
2016-12-07T07:51:50.136Z,672
2016-12-07T07:52:50.164Z,760
2016-12-07T07:53:50.124Z,740
2016-12-07T07:54:50.124Z,768
2016-12-07T07:55:49.796Z,820
2016-12-07T07:56:49.792Z,808
2016-12-07T07:57:50.108Z,808
2016-12-07T07:58:50.105Z,796
2016-12-07T07:59:50.100Z,808
2016-12-07T08:00:50.092Z,904
2016-12-07T08:01:50.120Z,960
2016-12-07T08:02:49.760Z,1008
2016-12-07T08:03:49.756Z,1004
2016-12-07T08:04:50.225Z,1020
2016-12-07T08:05:50.076Z,1012
2016-12-07T08:06:49.748Z,1028
2016-12-07T08:07:50.061Z,920
2016-12-07T08:08:50.065Z,988
2016-12-07T08:09:50.357Z,1124
2016-12-07T08:10:49.721Z,1232
2016-12-07T08:11:50.045Z,1164
2016-12-07T08:12:50.045Z,1204
2016-12-07T08:13:50.037Z,1244
2016-12-07T08:14:50.041Z,1280
2016-12-07T08:15:50.025Z,1300
2016-12-07T08:16:50.025Z,1260
2016-12-07T08:17:50.017Z,1252
2016-12-07T08:18:50.021Z,1300
2016-12-07T08:19:49.689Z,1356
2016-12-07T08:20:49.709Z,1388
2016-12-07T08:21:50.005Z,1428
2016-12-07T08:22:50.009Z,1384
2016-12-07T08:23:49.341Z,1396
2016-12-07T08:24:49.989Z,1408
2016-12-07T08:25:49.985Z,1388
2016-12-07T08:26:49.977Z,1408
2016-12-07T08:27:49.977Z,1400
2016-12-07T08:28:49.970Z,1412
2016-12-07T08:29:49.965Z,1468
2016-12-07T08:30:49.961Z,1524
2016-12-07T08:31:49.961Z,1584
2016-12-07T08:32:49.958Z,1592
2016-12-07T08:33:49.950Z,1548
2016-12-07T08:34:49.945Z,1552
2016-12-07T08:35:49.622Z,1548
2016-12-07T08:36:49.614Z,1544
2016-12-07T08:37:49.933Z,1540
2016-12-07T08:38:49.637Z,1544
2016-12-07T08:39:49.930Z,1544
2016-12-07T08:40:49.918Z,1572
2016-12-07T08:41:49.918Z,1600
2016-12-07T08:42:49.258Z,1640
2016-12-07T08:43:49.266Z,1664
2016-12-07T08:44:49.910Z,1616
2016-12-07T08:45:49.898Z,1588
2016-12-07T08:46:49.894Z,1644
2016-12-07T08:47:49.890Z,1660
2016-12-07T08:48:49.891Z,1652
2016-12-07T08:49:49.882Z,1696
2016-12-07T08:50:49.558Z,1716
2016-12-07T08:51:49.875Z,1684
2016-12-07T08:52:49.870Z,1696
2016-12-07T08:53:49.871Z,1744
2016-12-07T08:54:49.862Z,1700
2016-12-07T08:55:49.866Z,1576
2016-12-07T08:56:49.863Z,1512
2016-12-07T08:57:49.854Z,1476
2016-12-07T08:58:49.526Z,1540
2016-12-07T08:59:49.523Z,1572
2016-12-07T09:00:49.839Z,1560
2016-12-07T09:01:49.515Z,1584
2016-12-07T09:02:49.835Z,1656
2016-12-07T09:03:49.871Z,1632
2016-12-07T09:04:49.499Z,1636
2016-12-07T09:05:49.823Z,1652
2016-12-07T09:06:49.815Z,1696
2016-12-07T09:07:49.815Z,1748
2016-12-07T09:08:49.483Z,1808
2016-12-07T09:09:49.807Z,1832
2016-12-07T09:10:49.799Z,1772
2016-12-07T09:11:49.800Z,1632
2016-12-07T09:12:49.791Z,1696
2016-12-07T09:13:49.788Z,1764
2016-12-07T09:14:49.467Z,1816
2016-12-07T09:15:49.779Z,1824
2016-12-07T09:16:49.452Z,1816
2016-12-07T09:17:49.780Z,1896
2016-12-07T09:18:49.444Z,1920
2016-12-07T09:19:49.768Z,1952
2016-12-07T09:20:49.760Z,1976
2016-12-07T09:21:49.435Z,1944
2016-12-07T09:22:49.428Z,1896
2016-12-07T09:23:49.748Z,1836
2016-12-07T09:24:49.752Z,1884
2016-12-07T09:25:49.420Z,1880
2016-12-07T09:26:49.420Z,1920
2016-12-07T09:27:49.740Z,2008
2016-12-07T09:28:49.084Z,2028
2016-12-07T09:29:49.724Z,1992
2016-12-07T09:30:49.400Z,2004
2016-12-07T09:31:49.724Z,2036
2016-12-07T09:32:49.712Z,2064
2016-12-07T09:33:49.708Z,2104
2016-12-07T09:34:49.704Z,2092
2016-12-07T09:35:49.376Z,2088
2016-12-07T09:36:49.701Z,2084
2016-12-07T09:37:49.697Z,1980
2016-12-07T09:38:49.398Z,2024
2016-12-07T09:39:49.685Z,2116
2016-12-07T09:40:49.689Z,2188
2016-12-07T09:41:49.684Z,2192
2016-12-07T09:42:49.029Z,2052
2016-12-07T09:43:49.673Z,1952
2016-12-07T09:44:49.677Z,1904
2016-12-07T09:45:49.029Z,1832
2016-12-07T09:46:49.665Z,1724
2016-12-07T09:47:49.337Z,1656
2016-12-07T09:48:49.653Z,1652
2016-12-07T09:49:49.649Z,1632
2016-12-07T09:50:49.645Z,1668
2016-12-07T09:51:49.645Z,1696
2016-12-07T09:52:49.313Z,1756
2016-12-07T09:53:49.305Z,1792
2016-12-07T09:54:49.629Z,1816
2016-12-07T09:55:49.626Z,1652
2016-12-07T09:56:49.836Z,1652
2016-12-07T09:57:49.621Z,1676
2016-12-07T09:58:49.327Z,1684
2016-12-07T09:59:49.830Z,1764
2016-12-07T10:00:49.286Z,1848
2016-12-07T10:01:49.610Z,1976
2016-12-07T10:02:49.277Z,2140
2016-12-07T10:03:49.274Z,2040
2016-12-07T10:04:49.602Z,2100
2016-12-07T10:05:49.594Z,2148
2016-12-07T10:06:49.586Z,2204
2016-12-07T10:07:49.594Z,2108
2016-12-07T10:08:49.606Z,2044
2016-12-07T10:09:49.258Z,2072
2016-12-07T10:10:49.282Z,2100
2016-12-07T10:11:49.574Z,2200
2016-12-07T10:12:49.242Z,2272
2016-12-07T10:13:49.562Z,2368
2016-12-07T10:14:49.562Z,2464
2016-12-07T10:15:49.554Z,2468
2016-12-07T10:16:48.902Z,2404
2016-12-07T10:17:49.547Z,2316
2016-12-07T10:18:49.550Z,2172
2016-12-07T10:19:49.218Z,2252
2016-12-07T10:20:49.214Z,2312
2016-12-07T10:21:49.215Z,2240
2016-12-07T10:22:49.207Z,2248
2016-12-07T10:23:49.531Z,2268
2016-12-07T10:24:49.531Z,2292
2016-12-07T10:25:49.519Z,2356
2016-12-07T10:26:49.519Z,2380
2016-12-07T10:27:49.515Z,2416
2016-12-07T10:28:49.511Z,2464
2016-12-07T10:29:49.183Z,2508
2016-12-07T10:30:49.503Z,2544
2016-12-07T10:31:49.499Z,2696
2016-12-07T10:32:49.499Z,2764
2016-12-07T10:33:49.496Z,2648
2016-12-07T10:34:49.172Z,2524
2016-12-07T10:35:49.487Z,2384
2016-12-07T10:36:49.488Z,2332
2016-12-07T10:37:49.480Z,2264
2016-12-07T10:38:49.480Z,2288
2016-12-07T10:39:49.152Z,2268
2016-12-07T10:40:49.152Z,2264
2016-12-07T10:41:49.472Z,2248
2016-12-07T10:42:49.464Z,2232
2016-12-07T10:43:49.140Z,2204
2016-12-07T10:44:49.460Z,2268
2016-12-07T10:45:49.128Z,2388
2016-12-07T10:46:49.448Z,2432
2016-12-07T10:47:49.128Z,2456
2016-12-07T10:48:49.120Z,2496
2016-12-07T10:49:48.788Z,2620
2016-12-07T10:50:49.440Z,2680
2016-12-07T10:51:49.437Z,2700
2016-12-07T10:52:49.104Z,2884
2016-12-07T10:53:49.132Z,2984
2016-12-07T10:54:49.725Z,2920
2016-12-07T10:55:49.421Z,2828
2016-12-07T10:56:49.093Z,2752
2016-12-07T10:57:49.413Z,2644
2016-12-07T10:58:49.085Z,2552
2016-12-07T10:59:49.089Z,2524
2016-12-07T11:00:49.085Z,2544
2016-12-07T11:01:49.409Z,2528
2016-12-07T11:02:49.401Z,2520
2016-12-07T11:03:49.069Z,2488
2016-12-07T11:04:49.397Z,2440
2016-12-07T11:05:49.389Z,2384
2016-12-07T11:06:49.385Z,2344
2016-12-07T11:07:49.381Z,2340
2016-12-07T11:08:49.389Z,2244
2016-12-07T11:09:49.381Z,2172
2016-12-07T11:10:49.373Z,2144
2016-12-07T11:11:49.369Z,2084
2016-12-07T11:12:49.041Z,2072
2016-12-07T11:13:49.362Z,2148
2016-12-07T11:14:49.394Z,2328
2016-12-07T11:15:49.370Z,2432
2016-12-07T11:16:49.006Z,2512
2016-12-07T11:19:37.282Z,2740
2016-12-07T11:19:47.283Z,2768
2016-12-07T11:20:47.412Z,2876
2016-12-07T11:21:47.438Z,2804
2016-12-07T11:22:47.406Z,2672
2016-12-07T11:23:47.402Z,2436
2016-12-07T11:24:47.074Z,2328
2016-12-07T11:25:47.394Z,2220
2016-12-07T11:26:47.394Z,2248
2016-12-07T11:27:47.390Z,2316
2016-12-07T11:28:47.098Z,2560
2016-12-07T11:29:47.383Z,2792
2016-12-07T11:30:47.379Z,2832
2016-12-07T11:31:47.378Z,2860
2016-12-07T11:32:47.375Z,2840
2016-12-07T11:33:47.371Z,2784
2016-12-07T11:34:47.043Z,2752
2016-12-07T11:35:47.367Z,2776
2016-12-07T11:36:47.363Z,2692
2016-12-07T11:37:47.359Z,2664
2016-12-07T11:38:47.355Z,2652
2016-12-07T11:39:47.359Z,2624
2016-12-07T11:40:47.355Z,2556
2016-12-07T11:41:47.347Z,2492
2016-12-07T11:42:47.343Z,2432
2016-12-07T11:43:47.339Z,2456
2016-12-07T11:44:47.343Z,2496
2016-12-07T11:45:47.020Z,2420
2016-12-07T11:46:59.199Z,2336
2016-12-07T11:50:04.873Z,2468
2016-12-07T11:51:04.544Z,2600
2016-12-07T11:52:04.877Z,2604
2016-12-07T11:53:04.568Z,2548
2016-12-07T11:54:04.884Z,2472
2016-12-07T11:55:05.032Z,2488
2016-12-07T11:56:04.884Z,2552
2016-12-07T11:57:04.556Z,2504
2016-12-07T11:58:04.544Z,2524
2016-12-07T11:59:04.912Z,2544
2016-12-07T12:00:04.868Z,2468
2016-12-07T12:01:04.864Z,2420
2016-12-07T12:02:04.904Z,2392
2016-12-07T12:03:04.536Z,2456
2016-12-07T12:04:04.852Z,2464
2016-12-07T12:05:04.184Z,2360
2016-12-07T12:06:04.520Z,2236
2016-12-07T12:07:04.848Z,2336
2016-12-07T12:08:04.184Z,2528
2016-12-07T12:09:04.509Z,2648
2016-12-07T12:10:04.505Z,2504
2016-12-07T12:11:04.512Z,2488
2016-12-07T12:12:04.505Z,2548
2016-12-07T12:13:04.165Z,2496
2016-12-07T12:14:04.513Z,2596
2016-12-07T12:15:03.841Z,2648
2016-12-07T12:16:04.161Z,2728
2016-12-07T12:17:04.485Z,2560
2016-12-07T12:18:04.489Z,2452
2016-12-07T12:19:04.477Z,2376
2016-12-07T12:20:04.485Z,2436
2016-12-07T12:21:04.801Z,2492
2016-12-07T12:22:04.473Z,2660
2016-12-07T12:23:04.473Z,2776
2016-12-07T12:24:04.169Z,2740
2016-12-07T12:25:04.477Z,2760
2016-12-07T12:26:04.130Z,2808
2016-12-07T12:27:04.793Z,2448
2016-12-07T12:28:04.133Z,2268
2016-12-07T12:29:04.461Z,2316
2016-12-07T12:30:04.606Z,2400
2016-12-07T12:31:04.785Z,2212
2016-12-07T12:32:04.453Z,2020
2016-12-07T12:33:04.445Z,2020
2016-12-07T12:34:04.445Z,1980
2016-12-07T12:35:04.785Z,1944
2016-12-07T12:36:04.102Z,1968
2016-12-07T12:37:04.757Z,1912
2016-12-07T12:38:04.765Z,1972
2016-12-07T12:39:04.429Z,1968
2016-12-07T12:40:04.749Z,1848
2016-12-07T12:41:04.421Z,1788
2016-12-07T12:42:04.085Z,2088
2016-12-07T12:43:04.421Z,2224
2016-12-07T12:44:04.085Z,2356
2016-12-07T12:45:04.085Z,2348
2016-12-07T12:46:04.409Z,2400
2016-12-07T12:47:04.406Z,2412
2016-12-07T12:48:04.077Z,2280
2016-12-07T12:49:04.410Z,2260
2016-12-07T12:50:04.402Z,2144
2016-12-07T12:51:04.393Z,2028
2016-12-07T12:52:04.394Z,1944
2016-12-07T12:53:04.386Z,2032
2016-12-07T12:54:04.065Z,2120
2016-12-07T12:55:04.382Z,2032
2016-12-07T12:56:04.386Z,2064
2016-12-07T12:57:04.389Z,2056
2016-12-07T12:58:04.387Z,1960
2016-12-07T12:59:04.381Z,1972
2016-12-07T13:00:04.365Z,2000
2016-12-07T13:01:04.374Z,1972
2016-12-07T13:02:04.357Z,1912
2016-12-07T13:03:04.362Z,2016
2016-12-07T13:04:04.685Z,1984
2016-12-07T13:05:04.689Z,1884
2016-12-07T13:06:04.681Z,1872
2016-12-07T13:07:04.354Z,1880
2016-12-07T13:08:04.338Z,1808
2016-12-07T13:09:04.673Z,1852
2016-12-07T13:10:04.022Z,1844
2016-12-07T13:11:04.341Z,1820
2016-12-07T13:12:04.338Z,1948
2016-12-07T13:13:04.334Z,1916
2016-12-07T13:14:04.321Z,1864
2016-12-07T13:15:04.333Z,2100
2016-12-07T13:16:04.004Z,2100
2016-12-07T13:17:04.321Z,2024
2016-12-07T13:18:04.314Z,1948
2016-12-07T13:19:04.330Z,1980
2016-12-07T13:20:04.318Z,2048
2016-12-07T13:21:04.634Z,2072
2016-12-07T13:22:03.977Z,2088
2016-12-07T13:23:03.978Z,2104
2016-12-07T13:24:04.297Z,2008
2016-12-07T13:25:04.622Z,1808
2016-12-07T13:26:04.302Z,1592
2016-12-07T13:27:04.289Z,1544
2016-12-07T13:28:03.969Z,1500
2016-12-07T13:29:04.286Z,1428
2016-12-07T13:30:04.606Z,1452
2016-12-07T13:31:04.278Z,1496
2016-12-07T13:32:04.606Z,1544
2016-12-07T13:33:04.281Z,1652
2016-12-07T13:34:04.281Z,1644
2016-12-07T13:35:03.941Z,1596
2016-12-07T13:36:04.277Z,1640
2016-12-07T13:37:03.941Z,1560
2016-12-07T13:38:04.589Z,1416
2016-12-07T13:39:04.265Z,1344
2016-12-07T13:40:04.265Z,1344
2016-12-07T13:41:03.925Z,1268
2016-12-07T13:42:04.572Z,1228
2016-12-07T13:43:04.284Z,1272
2016-12-07T13:44:04.248Z,1284
2016-12-07T13:45:04.253Z,1284
2016-12-07T13:46:04.240Z,1284
2016-12-07T13:47:04.564Z,1220
2016-12-07T13:48:04.568Z,1200
2016-12-07T13:49:04.568Z,1236
2016-12-07T13:50:04.228Z,1284
2016-12-07T13:51:03.904Z,1328
2016-12-07T13:52:04.224Z,1336
2016-12-07T13:53:04.220Z,1340
2016-12-07T13:54:04.540Z,1280
2016-12-07T13:55:04.220Z,1240
2016-12-07T13:56:04.556Z,1232
2016-12-07T13:57:03.892Z,1200
2016-12-07T13:58:04.204Z,1228
2016-12-07T13:59:04.200Z,1196
2016-12-07T14:00:04.528Z,1268
2016-12-07T14:01:04.524Z,1252
2016-12-07T14:02:04.524Z,1256
2016-12-07T14:03:04.544Z,1244
2016-12-07T14:04:04.520Z,1244
2016-12-07T14:05:04.512Z,1328